sensor_id;sensor_type;location;lat;lon;timestamp;P1;durP1;ratioP1;P2;durP2;ratioP2
19436;SDS011;9854;50.968;4.168;2023-04-26T00:01:46;11.00;;;6.47;;
19436;SDS011;9854;50.968;4.168;2023-04-26T00:04:12;16.93;;;6.40;;
19436;SDS011;9854;50.968;4.168;2023-04-26T00:06:38;11.30;;;6.40;;
19436;SDS011;9854;50.968;4.168;2023-04-26T00:09:03;12.50;;;6.50;;
19436;SDS011;9854;50.968;4.168;2023-04-26T00:11:29;9.77;;;6.13;;
19436;SDS011;9854;50.968;4.168;2023-04-26T00:13:57;11.30;;;6.50;;
19436;SDS011;9854;50.968;4.168;2023-04-26T00:16:23;15.80;;;6.43;;
19436;SDS011;9854;50.968;4.168;2023-04-26T00:18:49;9.90;;;6.10;;
19436;SDS011;9854;50.968;4.168;2023-04-26T00:21:15;12.03;;;6.33;;
19436;SDS011;9854;50.968;4.168;2023-04-26T00:23:41;17.73;;;6.63;;
19436;SDS011;9854;50.968;4.168;2023-04-26T00:26:07;11.90;;;6.17;;
19436;SDS011;9854;50.968;4.168;2023-04-26T00:28:33;9.87;;;5.47;;
19436;SDS011;9854;50.968;4.168;2023-04-26T00:30:58;17.27;;;5.87;;
19436;SDS011;9854;50.968;4.168;2023-04-26T00:33:24;15.73;;;6.70;;
19436;SDS011;9854;50.968;4.168;2023-04-26T00:35:50;15.73;;;6.20;;
19436;SDS011;9854;50.968;4.168;2023-04-26T00:38:16;14.07;;;6.37;;
19436;SDS011;9854;50.968;4.168;2023-04-26T00:43:35;12.53;;;6.43;;
19436;SDS011;9854;50.968;4.168;2023-04-26T00:46:01;13.13;;;6.60;;
19436;SDS011;9854;50.968;4.168;2023-04-26T00:48:27;12.40;;;7.10;;
19436;SDS011;9854;50.968;4.168;2023-04-26T00:50:53;15.47;;;7.10;;
19436;SDS011;9854;50.968;4.168;2023-04-26T00:53:19;11.17;;;5.53;;
19436;SDS011;9854;50.968;4.168;2023-04-26T00:55:46;13.00;;;6.73;;
19436;SDS011;9854;50.968;4.168;2023-04-26T00:58:12;13.27;;;6.10;;
19436;SDS011;9854;50.968;4.168;2023-04-26T01:00:37;16.20;;;6.90;;
19436;SDS011;9854;50.968;4.168;2023-04-26T01:03:03;13.67;;;6.43;;
19436;SDS011;9854;50.968;4.168;2023-04-26T01:05:28;8.87;;;6.00;;
19436;SDS011;9854;50.968;4.168;2023-04-26T01:07:54;17.03;;;7.50;;
19436;SDS011;9854;50.968;4.168;2023-04-26T01:10:20;12.00;;;7.27;;
19436;SDS011;9854;50.968;4.168;2023-04-26T01:12:46;13.17;;;6.33;;
19436;SDS011;9854;50.968;4.168;2023-04-26T01:15:12;11.23;;;6.83;;
19436;SDS011;9854;50.968;4.168;2023-04-26T01:17:38;14.77;;;6.47;;
19436;SDS011;9854;50.968;4.168;2023-04-26T01:20:04;10.33;;;6.57;;
19436;SDS011;9854;50.968;4.168;2023-04-26T01:22:33;19.90;;;6.80;;
19436;SDS011;9854;50.968;4.168;2023-04-26T01:25:00;10.57;;;5.73;;
19436;SDS011;9854;50.968;4.168;2023-04-26T01:27:28;12.70;;;6.23;;
19436;SDS011;9854;50.968;4.168;2023-04-26T01:29:54;10.10;;;5.87;;
19436;SDS011;9854;50.968;4.168;2023-04-26T01:32:20;14.20;;;6.80;;
19436;SDS011;9854;50.968;4.168;2023-04-26T01:34:45;14.17;;;6.13;;
19436;SDS011;9854;50.968;4.168;2023-04-26T01:37:11;11.70;;;6.53;;
19436;SDS011;9854;50.968;4.168;2023-04-26T01:39:36;12.60;;;6.13;;
19436;SDS011;9854;50.968;4.168;2023-04-26T01:42:02;15.70;;;7.20;;
19436;SDS011;9854;50.968;4.168;2023-04-26T01:44:29;10.00;;;6.10;;
19436;SDS011;9854;50.968;4.168;2023-04-26T01:46:55;15.03;;;5.97;;
19436;SDS011;9854;50.968;4.168;2023-04-26T01:49:21;11.93;;;5.73;;
19436;SDS011;9854;50.968;4.168;2023-04-26T01:51:47;7.50;;;5.60;;
19436;SDS011;9854;50.968;4.168;2023-04-26T01:54:12;11.37;;;6.30;;
19436;SDS011;9854;50.968;4.168;2023-04-26T01:56:38;15.63;;;5.77;;
19436;SDS011;9854;50.968;4.168;2023-04-26T01:59:04;13.73;;;6.53;;
19436;SDS011;9854;50.968;4.168;2023-04-26T02:01:29;11.57;;;6.10;;
19436;SDS011;9854;50.968;4.168;2023-04-26T02:03:55;10.00;;;5.43;;
19436;SDS011;9854;50.968;4.168;2023-04-26T02:06:20;12.13;;;5.63;;
19436;SDS011;9854;50.968;4.168;2023-04-26T02:08:46;15.10;;;6.87;;
19436;SDS011;9854;50.968;4.168;2023-04-26T02:11:13;16.77;;;6.23;;
19436;SDS011;9854;50.968;4.168;2023-04-26T02:13:38;14.13;;;6.03;;
19436;SDS011;9854;50.968;4.168;2023-04-26T02:16:04;13.60;;;5.90;;
19436;SDS011;9854;50.968;4.168;2023-04-26T02:18:31;8.37;;;5.40;;
19436;SDS011;9854;50.968;4.168;2023-04-26T02:20:57;13.90;;;6.03;;
19436;SDS011;9854;50.968;4.168;2023-04-26T02:23:22;9.67;;;5.47;;
19436;SDS011;9854;50.968;4.168;2023-04-26T02:25:48;17.97;;;5.77;;
19436;SDS011;9854;50.968;4.168;2023-04-26T02:28:14;11.17;;;5.93;;
19436;SDS011;9854;50.968;4.168;2023-04-26T02:30:40;9.00;;;5.20;;
19436;SDS011;9854;50.968;4.168;2023-04-26T02:33:06;10.33;;;5.70;;
19436;SDS011;9854;50.968;4.168;2023-04-26T02:35:33;14.20;;;5.67;;
19436;SDS011;9854;50.968;4.168;2023-04-26T02:38:00;10.57;;;5.27;;
19436;SDS011;9854;50.968;4.168;2023-04-26T02:40:25;17.97;;;5.73;;
19436;SDS011;9854;50.968;4.168;2023-04-26T02:42:51;14.17;;;5.83;;
19436;SDS011;9854;50.968;4.168;2023-04-26T02:45:17;8.93;;;4.67;;
19436;SDS011;9854;50.968;4.168;2023-04-26T02:47:42;15.23;;;5.10;;
19436;SDS011;9854;50.968;4.168;2023-04-26T02:50:08;19.13;;;5.83;;
19436;SDS011;9854;50.968;4.168;2023-04-26T02:52:35;11.80;;;5.50;;
19436;SDS011;9854;50.968;4.168;2023-04-26T02:55:01;18.27;;;5.33;;
19436;SDS011;9854;50.968;4.168;2023-04-26T02:57:28;10.37;;;5.87;;
19436;SDS011;9854;50.968;4.168;2023-04-26T02:59:54;7.83;;;5.10;;
19436;SDS011;9854;50.968;4.168;2023-04-26T03:02:20;12.13;;;5.60;;
19436;SDS011;9854;50.968;4.168;2023-04-26T03:04:47;6.83;;;4.67;;
19436;SDS011;9854;50.968;4.168;2023-04-26T03:07:13;15.60;;;5.60;;
19436;SDS011;9854;50.968;4.168;2023-04-26T03:09:39;11.10;;;5.03;;
19436;SDS011;9854;50.968;4.168;2023-04-26T03:12:07;10.03;;;5.87;;
19436;SDS011;9854;50.968;4.168;2023-04-26T03:14:33;10.83;;;5.67;;
19436;SDS011;9854;50.968;4.168;2023-04-26T03:16:59;14.43;;;6.80;;
19436;SDS011;9854;50.968;4.168;2023-04-26T03:19:25;10.93;;;5.63;;
19436;SDS011;9854;50.968;4.168;2023-04-26T03:21:52;13.47;;;6.23;;
19436;SDS011;9854;50.968;4.168;2023-04-26T03:24:18;11.83;;;6.40;;
19436;SDS011;9854;50.968;4.168;2023-04-26T03:26:44;12.33;;;6.20;;
19436;SDS011;9854;50.968;4.168;2023-04-26T03:29:09;10.33;;;6.20;;
19436;SDS011;9854;50.968;4.168;2023-04-26T03:31:36;9.60;;;5.77;;
19436;SDS011;9854;50.968;4.168;2023-04-26T03:34:02;7.50;;;5.30;;
19436;SDS011;9854;50.968;4.168;2023-04-26T03:36:27;13.33;;;6.63;;
19436;SDS011;9854;50.968;4.168;2023-04-26T03:38:53;10.90;;;5.77;;
19436;SDS011;9854;50.968;4.168;2023-04-26T03:41:20;9.80;;;6.07;;
19436;SDS011;9854;50.968;4.168;2023-04-26T03:43:46;11.32;;;6.47;;
19436;SDS011;9854;50.968;4.168;2023-04-26T03:46:12;12.03;;;6.37;;
19436;SDS011;9854;50.968;4.168;2023-04-26T03:48:38;15.67;;;6.97;;
19436;SDS011;9854;50.968;4.168;2023-04-26T03:51:04;10.60;;;6.53;;
19436;SDS011;9854;50.968;4.168;2023-04-26T03:53:30;14.57;;;6.83;;
19436;SDS011;9854;50.968;4.168;2023-04-26T03:55:56;8.20;;;6.50;;
19436;SDS011;9854;50.968;4.168;2023-04-26T03:58:22;9.47;;;6.53;;
19436;SDS011;9854;50.968;4.168;2023-04-26T04:00:51;9.37;;;6.20;;
19436;SDS011;9854;50.968;4.168;2023-04-26T04:03:16;12.77;;;6.60;;
19436;SDS011;9854;50.968;4.168;2023-04-26T04:05:42;21.00;;;7.27;;
19436;SDS011;9854;50.968;4.168;2023-04-26T04:08:07;18.97;;;6.37;;
19436;SDS011;9854;50.968;4.168;2023-04-26T04:10:33;9.43;;;6.07;;
19436;SDS011;9854;50.968;4.168;2023-04-26T04:13:00;10.97;;;6.50;;
19436;SDS011;9854;50.968;4.168;2023-04-26T04:15:26;20.67;;;7.10;;
19436;SDS011;9854;50.968;4.168;2023-04-26T04:17:52;10.00;;;7.00;;
19436;SDS011;9854;50.968;4.168;2023-04-26T04:20:17;22.90;;;7.70;;
19436;SDS011;9854;50.968;4.168;2023-04-26T04:22:44;13.23;;;6.93;;
19436;SDS011;9854;50.968;4.168;2023-04-26T04:25:10;15.90;;;7.37;;
19436;SDS011;9854;50.968;4.168;2023-04-26T04:27:36;11.37;;;6.80;;
19436;SDS011;9854;50.968;4.168;2023-04-26T04:30:02;15.00;;;6.70;;
19436;SDS011;9854;50.968;4.168;2023-04-26T04:32:31;12.67;;;6.90;;
19436;SDS011;9854;50.968;4.168;2023-04-26T04:34:57;13.80;;;6.63;;
19436;SDS011;9854;50.968;4.168;2023-04-26T04:37:23;12.20;;;7.23;;
19436;SDS011;9854;50.968;4.168;2023-04-26T04:39:50;14.83;;;8.57;;
19436;SDS011;9854;50.968;4.168;2023-04-26T04:42:17;16.17;;;9.90;;
19436;SDS011;9854;50.968;4.168;2023-04-26T04:44:42;18.10;;;9.97;;
19436;SDS011;9854;50.968;4.168;2023-04-26T04:47:09;17.70;;;9.13;;
19436;SDS011;9854;50.968;4.168;2023-04-26T04:49:35;14.10;;;7.60;;
19436;SDS011;9854;50.968;4.168;2023-04-26T04:52:01;21.10;;;8.00;;
19436;SDS011;9854;50.968;4.168;2023-04-26T04:54:28;21.67;;;7.97;;
19436;SDS011;9854;50.968;4.168;2023-04-26T04:56:53;14.80;;;9.57;;
19436;SDS011;9854;50.968;4.168;2023-04-26T04:59:19;17.70;;;9.37;;
19436;SDS011;9854;50.968;4.168;2023-04-26T05:01:45;17.93;;;11.40;;
19436;SDS011;9854;50.968;4.168;2023-04-26T05:04:10;24.17;;;10.60;;
19436;SDS011;9854;50.968;4.168;2023-04-26T05:06:36;22.83;;;12.13;;
19436;SDS011;9854;50.968;4.168;2023-04-26T05:09:01;23.17;;;12.75;;
19436;SDS011;9854;50.968;4.168;2023-04-26T05:11:29;32.17;;;20.20;;
19436;SDS011;9854;50.968;4.168;2023-04-26T05:13:56;16.73;;;12.47;;
19436;SDS011;9854;50.968;4.168;2023-04-26T05:16:21;18.38;;;11.45;;
19436;SDS011;9854;50.968;4.168;2023-04-26T05:18:50;26.10;;;13.70;;
19436;SDS011;9854;50.968;4.168;2023-04-26T05:21:16;22.90;;;12.20;;
19436;SDS011;9854;50.968;4.168;2023-04-26T05:23:41;17.73;;;10.60;;
19436;SDS011;9854;50.968;4.168;2023-04-26T05:26:09;24.50;;;14.70;;
19436;SDS011;9854;50.968;4.168;2023-04-26T05:28:39;35.90;;;18.53;;
19436;SDS011;9854;50.968;4.168;2023-04-26T05:31:05;28.33;;;15.60;;
19436;SDS011;9854;50.968;4.168;2023-04-26T05:33:30;21.63;;;13.53;;
19436;SDS011;9854;50.968;4.168;2023-04-26T05:35:56;30.03;;;12.87;;
19436;SDS011;9854;50.968;4.168;2023-04-26T05:38:22;22.67;;;13.37;;
19436;SDS011;9854;50.968;4.168;2023-04-26T05:40:48;24.47;;;11.60;;
19436;SDS011;9854;50.968;4.168;2023-04-26T05:43:14;18.10;;;9.53;;
19436;SDS011;9854;50.968;4.168;2023-04-26T05:45:48;20.40;;;10.20;;
19436;SDS011;9854;50.968;4.168;2023-04-26T05:48:22;23.23;;;10.50;;
19436;SDS011;9854;50.968;4.168;2023-04-26T05:50:49;24.83;;;10.83;;
19436;SDS011;9854;50.968;4.168;2023-04-26T05:53:15;24.67;;;10.40;;
19436;SDS011;9854;50.968;4.168;2023-04-26T05:55:41;21.00;;;10.60;;
19436;SDS011;9854;50.968;4.168;2023-04-26T05:58:07;21.03;;;10.20;;
19436;SDS011;9854;50.968;4.168;2023-04-26T06:00:34;19.83;;;10.33;;
19436;SDS011;9854;50.968;4.168;2023-04-26T06:03:00;23.37;;;12.10;;
19436;SDS011;9854;50.968;4.168;2023-04-26T06:05:26;16.03;;;10.20;;
19436;SDS011;9854;50.968;4.168;2023-04-26T06:07:52;14.47;;;10.07;;
19436;SDS011;9854;50.968;4.168;2023-04-26T06:10:18;16.20;;;10.03;;
19436;SDS011;9854;50.968;4.168;2023-04-26T06:12:43;17.20;;;8.93;;
19436;SDS011;9854;50.968;4.168;2023-04-26T06:15:10;16.90;;;9.33;;
19436;SDS011;9854;50.968;4.168;2023-04-26T06:17:36;19.53;;;9.83;;
19436;SDS011;9854;50.968;4.168;2023-04-26T06:20:02;18.83;;;9.67;;
19436;SDS011;9854;50.968;4.168;2023-04-26T06:22:29;14.57;;;8.90;;
19436;SDS011;9854;50.968;4.168;2023-04-26T06:24:55;22.33;;;10.03;;
19436;SDS011;9854;50.968;4.168;2023-04-26T06:27:20;20.73;;;9.27;;
19436;SDS011;9854;50.968;4.168;2023-04-26T06:29:46;17.97;;;10.03;;
19436;SDS011;9854;50.968;4.168;2023-04-26T06:32:12;12.77;;;8.90;;
19436;SDS011;9854;50.968;4.168;2023-04-26T06:34:38;15.57;;;9.57;;
19436;SDS011;9854;50.968;4.168;2023-04-26T06:37:03;20.43;;;10.37;;
19436;SDS011;9854;50.968;4.168;2023-04-26T06:39:29;23.57;;;11.20;;
19436;SDS011;9854;50.968;4.168;2023-04-26T06:41:55;20.13;;;11.23;;
19436;SDS011;9854;50.968;4.168;2023-04-26T06:44:21;11.60;;;10.00;;
19436;SDS011;9854;50.968;4.168;2023-04-26T06:46:46;14.00;;;9.40;;
19436;SDS011;9854;50.968;4.168;2023-04-26T06:49:13;16.77;;;9.70;;
19436;SDS011;9854;50.968;4.168;2023-04-26T06:51:39;16.37;;;8.70;;
19436;SDS011;9854;50.968;4.168;2023-04-26T06:54:05;17.20;;;9.47;;
19436;SDS011;9854;50.968;4.168;2023-04-26T06:56:30;25.57;;;9.97;;
19436;SDS011;9854;50.968;4.168;2023-04-26T06:59:00;20.60;;;9.57;;
19436;SDS011;9854;50.968;4.168;2023-04-26T07:01:30;16.30;;;9.10;;
19436;SDS011;9854;50.968;4.168;2023-04-26T07:04:03;18.47;;;9.67;;
19436;SDS011;9854;50.968;4.168;2023-04-26T07:06:34;24.80;;;11.07;;
19436;SDS011;9854;50.968;4.168;2023-04-26T07:09:01;28.73;;;11.03;;
19436;SDS011;9854;50.968;4.168;2023-04-26T07:11:27;21.50;;;10.90;;
19436;SDS011;9854;50.968;4.168;2023-04-26T07:13:53;21.37;;;10.83;;
19436;SDS011;9854;50.968;4.168;2023-04-26T07:16:19;17.37;;;10.50;;
19436;SDS011;9854;50.968;4.168;2023-04-26T07:18:45;14.50;;;9.80;;
19436;SDS011;9854;50.968;4.168;2023-04-26T07:21:12;21.10;;;9.43;;
19436;SDS011;9854;50.968;4.168;2023-04-26T07:23:38;24.48;;;10.05;;
19436;SDS011;9854;50.968;4.168;2023-04-26T07:26:04;16.67;;;9.82;;
19436;SDS011;9854;50.968;4.168;2023-04-26T07:28:30;20.70;;;10.00;;
19436;SDS011;9854;50.968;4.168;2023-04-26T07:30:56;14.80;;;7.90;;
19436;SDS011;9854;50.968;4.168;2023-04-26T07:33:22;25.35;;;9.50;;
19436;SDS011;9854;50.968;4.168;2023-04-26T07:35:54;16.30;;;8.10;;
19436;SDS011;9854;50.968;4.168;2023-04-26T07:38:23;20.40;;;7.72;;
19436;SDS011;9854;50.968;4.168;2023-04-26T07:40:49;22.45;;;8.00;;
19436;SDS011;9854;50.968;4.168;2023-04-26T07:43:16;19.73;;;6.70;;
19436;SDS011;9854;50.968;4.168;2023-04-26T07:45:42;14.13;;;6.60;;
19436;SDS011;9854;50.968;4.168;2023-04-26T07:48:08;13.35;;;6.97;;
19436;SDS011;9854;50.968;4.168;2023-04-26T07:50:33;13.35;;;6.20;;
19436;SDS011;9854;50.968;4.168;2023-04-26T07:52:59;18.95;;;7.18;;
19436;SDS011;9854;50.968;4.168;2023-04-26T07:55:25;18.10;;;6.30;;
19436;SDS011;9854;50.968;4.168;2023-04-26T07:57:50;19.90;;;7.00;;
19436;SDS011;9854;50.968;4.168;2023-04-26T08:00:16;20.00;;;7.80;;
19436;SDS011;9854;50.968;4.168;2023-04-26T08:02:43;18.13;;;7.20;;
19436;SDS011;9854;50.968;4.168;2023-04-26T08:05:11;21.38;;;7.03;;
19436;SDS011;9854;50.968;4.168;2023-04-26T08:07:37;15.07;;;6.72;;
19436;SDS011;9854;50.968;4.168;2023-04-26T08:10:03;11.63;;;6.63;;
19436;SDS011;9854;50.968;4.168;2023-04-26T08:12:29;18.10;;;7.05;;
19436;SDS011;9854;50.968;4.168;2023-04-26T08:14:55;16.88;;;6.70;;
19436;SDS011;9854;50.968;4.168;2023-04-26T08:17:21;15.43;;;7.07;;
19436;SDS011;9854;50.968;4.168;2023-04-26T08:19:46;16.30;;;7.32;;
19436;SDS011;9854;50.968;4.168;2023-04-26T08:22:12;10.13;;;4.95;;
19436;SDS011;9854;50.968;4.168;2023-04-26T08:24:37;10.35;;;5.53;;
19436;SDS011;9854;50.968;4.168;2023-04-26T08:27:03;17.65;;;6.40;;
19436;SDS011;9854;50.968;4.168;2023-04-26T08:29:29;12.82;;;6.65;;
19436;SDS011;9854;50.968;4.168;2023-04-26T08:31:55;17.35;;;6.45;;
19436;SDS011;9854;50.968;4.168;2023-04-26T08:34:21;12.75;;;5.35;;
19436;SDS011;9854;50.968;4.168;2023-04-26T08:36:46;17.08;;;6.78;;
19436;SDS011;9854;50.968;4.168;2023-04-26T08:39:12;11.68;;;5.43;;
19436;SDS011;9854;50.968;4.168;2023-04-26T08:41:46;13.30;;;5.95;;
19436;SDS011;9854;50.968;4.168;2023-04-26T08:44:16;10.60;;;4.72;;
19436;SDS011;9854;50.968;4.168;2023-04-26T08:49:40;11.65;;;3.72;;
19436;SDS011;9854;50.968;4.168;2023-04-26T08:52:08;9.48;;;3.33;;
19436;SDS011;9854;50.968;4.168;2023-04-26T08:54:35;12.32;;;5.28;;
19436;SDS011;9854;50.968;4.168;2023-04-26T08:57:02;12.13;;;5.25;;
19436;SDS011;9854;50.968;4.168;2023-04-26T08:59:29;13.68;;;6.32;;
19436;SDS011;9854;50.968;4.168;2023-04-26T09:01:57;12.18;;;5.55;;
19436;SDS011;9854;50.968;4.168;2023-04-26T09:04:25;13.23;;;6.85;;
19436;SDS011;9854;50.968;4.168;2023-04-26T09:06:50;16.20;;;7.80;;
19436;SDS011;9854;50.968;4.168;2023-04-26T09:09:20;11.90;;;7.95;;
19436;SDS011;9854;50.968;4.168;2023-04-26T09:11:54;18.58;;;9.05;;
19436;SDS011;9854;50.968;4.168;2023-04-26T09:14:20;14.90;;;8.35;;
19436;SDS011;9854;50.968;4.168;2023-04-26T09:16:46;12.80;;;7.70;;
19436;SDS011;9854;50.968;4.168;2023-04-26T09:19:12;14.93;;;8.25;;
19436;SDS011;9854;50.968;4.168;2023-04-26T09:21:41;17.58;;;8.27;;
19436;SDS011;9854;50.968;4.168;2023-04-26T09:24:09;13.00;;;8.02;;
19436;SDS011;9854;50.968;4.168;2023-04-26T09:26:34;12.05;;;7.38;;
19436;SDS011;9854;50.968;4.168;2023-04-26T09:29:11;13.30;;;8.13;;
19436;SDS011;9854;50.968;4.168;2023-04-26T09:31:45;14.65;;;8.02;;
19436;SDS011;9854;50.968;4.168;2023-04-26T09:34:12;13.82;;;8.20;;
19436;SDS011;9854;50.968;4.168;2023-04-26T09:36:59;15.82;;;9.10;;
19436;SDS011;9854;50.968;4.168;2023-04-26T09:39:28;14.27;;;7.95;;
19436;SDS011;9854;50.968;4.168;2023-04-26T09:42:06;17.50;;;10.30;;
19436;SDS011;9854;50.968;4.168;2023-04-26T09:44:32;18.10;;;9.02;;
19436;SDS011;9854;50.968;4.168;2023-04-26T09:47:03;15.05;;;9.98;;
19436;SDS011;9854;50.968;4.168;2023-04-26T09:49:46;19.63;;;11.07;;
19436;SDS011;9854;50.968;4.168;2023-04-26T09:52:14;20.80;;;11.30;;
19436;SDS011;9854;50.968;4.168;2023-04-26T09:57:12;19.00;;;10.02;;
19436;SDS011;9854;50.968;4.168;2023-04-26T09:59:39;20.27;;;12.85;;
19436;SDS011;9854;50.968;4.168;2023-04-26T10:02:09;17.05;;;11.75;;
19436;SDS011;9854;50.968;4.168;2023-04-26T10:04:40;13.27;;;9.77;;
19436;SDS011;9854;50.968;4.168;2023-04-26T10:07:08;16.80;;;9.43;;
19436;SDS011;9854;50.968;4.168;2023-04-26T10:09:34;14.63;;;9.10;;
19436;SDS011;9854;50.968;4.168;2023-04-26T10:12:00;17.90;;;9.43;;
19436;SDS011;9854;50.968;4.168;2023-04-26T10:14:26;15.70;;;9.70;;
19436;SDS011;9854;50.968;4.168;2023-04-26T10:16:52;12.15;;;8.20;;
19436;SDS011;9854;50.968;4.168;2023-04-26T10:19:20;14.85;;;7.90;;
19436;SDS011;9854;50.968;4.168;2023-04-26T10:21:46;16.90;;;9.68;;
19436;SDS011;9854;50.968;4.168;2023-04-26T10:24:15;13.77;;;8.73;;
19436;SDS011;9854;50.968;4.168;2023-04-26T10:26:51;11.25;;;8.32;;
19436;SDS011;9854;50.968;4.168;2023-04-26T10:29:23;12.82;;;8.07;;
19436;SDS011;9854;50.968;4.168;2023-04-26T10:34:29;15.27;;;10.07;;
19436;SDS011;9854;50.968;4.168;2023-04-26T10:39:50;13.48;;;9.77;;
19436;SDS011;9854;50.968;4.168;2023-04-26T10:42:47;13.65;;;9.63;;
19436;SDS011;9854;50.968;4.168;2023-04-26T10:45:26;22.48;;;11.07;;
19436;SDS011;9854;50.968;4.168;2023-04-26T10:51:06;11.80;;;9.73;;
19436;SDS011;9854;50.968;4.168;2023-04-26T10:53:26;13.35;;;7.85;;
19436;SDS011;9854;50.968;4.168;2023-04-26T10:55:52;11.75;;;8.77;;
19436;SDS011;9854;50.968;4.168;2023-04-26T10:58:31;11.27;;;8.38;;
19436;SDS011;9854;50.968;4.168;2023-04-26T11:01:05;11.98;;;8.25;;
19436;SDS011;9854;50.968;4.168;2023-04-26T11:03:31;11.60;;;7.97;;
19436;SDS011;9854;50.968;4.168;2023-04-26T11:05:57;16.10;;;8.55;;
19436;SDS011;9854;50.968;4.168;2023-04-26T11:08:23;19.00;;;8.65;;
19436;SDS011;9854;50.968;4.168;2023-04-26T11:11:11;10.85;;;8.48;;
19436;SDS011;9854;50.968;4.168;2023-04-26T11:13:38;15.70;;;9.38;;
19436;SDS011;9854;50.968;4.168;2023-04-26T11:16:08;15.30;;;9.85;;
19436;SDS011;9854;50.968;4.168;2023-04-26T11:18:35;16.73;;;9.88;;
19436;SDS011;9854;50.968;4.168;2023-04-26T11:21:03;13.77;;;9.73;;
19436;SDS011;9854;50.968;4.168;2023-04-26T11:23:30;24.27;;;9.45;;
19436;SDS011;9854;50.968;4.168;2023-04-26T11:25:58;10.98;;;8.07;;
19436;SDS011;9854;50.968;4.168;2023-04-26T11:28:27;7.75;;;7.05;;
19436;SDS011;9854;50.968;4.168;2023-04-26T11:30:53;12.63;;;8.75;;
19436;SDS011;9854;50.968;4.168;2023-04-26T11:33:20;17.25;;;8.93;;
19436;SDS011;9854;50.968;4.168;2023-04-26T11:35:49;10.63;;;7.88;;
19436;SDS011;9854;50.968;4.168;2023-04-26T11:38:16;15.45;;;7.90;;
19436;SDS011;9854;50.968;4.168;2023-04-26T11:40:42;19.30;;;7.57;;
19436;SDS011;9854;50.968;4.168;2023-04-26T11:43:09;12.75;;;8.30;;
19436;SDS011;9854;50.968;4.168;2023-04-26T11:45:36;19.50;;;7.78;;
19436;SDS011;9854;50.968;4.168;2023-04-26T11:48:03;11.93;;;8.00;;
19436;SDS011;9854;50.968;4.168;2023-04-26T11:50:30;11.35;;;7.70;;
19436;SDS011;9854;50.968;4.168;2023-04-26T11:52:58;12.02;;;7.82;;
19436;SDS011;9854;50.968;4.168;2023-04-26T11:55:28;12.00;;;7.47;;
19436;SDS011;9854;50.968;4.168;2023-04-26T11:57:57;8.60;;;6.25;;
19436;SDS011;9854;50.968;4.168;2023-04-26T12:00:27;9.07;;;6.55;;
19436;SDS011;9854;50.968;4.168;2023-04-26T12:02:53;11.73;;;6.75;;
19436;SDS011;9854;50.968;4.168;2023-04-26T12:05:24;12.25;;;7.40;;
19436;SDS011;9854;50.968;4.168;2023-04-26T12:07:52;10.88;;;6.30;;
19436;SDS011;9854;50.968;4.168;2023-04-26T12:10:41;11.65;;;6.93;;
19436;SDS011;9854;50.968;4.168;2023-04-26T12:13:06;10.00;;;7.10;;
19436;SDS011;9854;50.968;4.168;2023-04-26T12:15:33;11.15;;;6.78;;
19436;SDS011;9854;50.968;4.168;2023-04-26T12:17:59;13.45;;;7.35;;
19436;SDS011;9854;50.968;4.168;2023-04-26T12:20:33;10.95;;;8.05;;
19436;SDS011;9854;50.968;4.168;2023-04-26T12:25:33;13.00;;;7.78;;
19436;SDS011;9854;50.968;4.168;2023-04-26T12:28:01;17.17;;;8.10;;
19436;SDS011;9854;50.968;4.168;2023-04-26T12:30:36;9.32;;;7.50;;
19436;SDS011;9854;50.968;4.168;2023-04-26T12:33:03;12.43;;;7.80;;
19436;SDS011;9854;50.968;4.168;2023-04-26T12:35:29;8.20;;;7.18;;
19436;SDS011;9854;50.968;4.168;2023-04-26T12:37:55;11.35;;;7.28;;
19436;SDS011;9854;50.968;4.168;2023-04-26T12:40:24;11.57;;;7.30;;
19436;SDS011;9854;50.968;4.168;2023-04-26T12:42:50;14.55;;;7.60;;
19436;SDS011;9854;50.968;4.168;2023-04-26T12:45:17;19.23;;;8.10;;
19436;SDS011;9854;50.968;4.168;2023-04-26T12:47:46;15.27;;;7.78;;
19436;SDS011;9854;50.968;4.168;2023-04-26T12:50:12;12.63;;;6.90;;
19436;SDS011;9854;50.968;4.168;2023-04-26T12:52:39;10.30;;;7.45;;
19436;SDS011;9854;50.968;4.168;2023-04-26T12:55:06;13.65;;;7.63;;
19436;SDS011;9854;50.968;4.168;2023-04-26T12:57:33;14.57;;;7.18;;
19436;SDS011;9854;50.968;4.168;2023-04-26T13:00:03;13.25;;;6.68;;
19436;SDS011;9854;50.968;4.168;2023-04-26T13:02:31;10.00;;;7.07;;
19436;SDS011;9854;50.968;4.168;2023-04-26T13:04:57;9.88;;;6.65;;
19436;SDS011;9854;50.968;4.168;2023-04-26T13:07:25;13.25;;;6.68;;
19436;SDS011;9854;50.968;4.168;2023-04-26T13:09:51;12.00;;;6.78;;
19436;SDS011;9854;50.968;4.168;2023-04-26T13:12:17;9.70;;;6.70;;
19436;SDS011;9854;50.968;4.168;2023-04-26T13:14:43;11.68;;;7.50;;
19436;SDS011;9854;50.968;4.168;2023-04-26T13:17:10;9.77;;;6.82;;
19436;SDS011;9854;50.968;4.168;2023-04-26T13:19:35;11.98;;;7.57;;
19436;SDS011;9854;50.968;4.168;2023-04-26T13:22:02;11.38;;;8.10;;
19436;SDS011;9854;50.968;4.168;2023-04-26T13:24:28;13.60;;;7.22;;
19436;SDS011;9854;50.968;4.168;2023-04-26T13:26:55;11.10;;;7.78;;
19436;SDS011;9854;50.968;4.168;2023-04-26T13:29:22;18.73;;;8.85;;
19436;SDS011;9854;50.968;4.168;2023-04-26T13:31:47;12.85;;;7.13;;
19436;SDS011;9854;50.968;4.168;2023-04-26T13:34:13;9.38;;;7.28;;
19436;SDS011;9854;50.968;4.168;2023-04-26T13:36:39;12.98;;;7.97;;
19436;SDS011;9854;50.968;4.168;2023-04-26T13:39:05;12.43;;;6.93;;
19436;SDS011;9854;50.968;4.168;2023-04-26T13:41:32;11.13;;;6.95;;
19436;SDS011;9854;50.968;4.168;2023-04-26T13:43:59;12.45;;;6.78;;
19436;SDS011;9854;50.968;4.168;2023-04-26T13:46:29;11.73;;;6.82;;
19436;SDS011;9854;50.968;4.168;2023-04-26T13:48:55;9.73;;;7.25;;
19436;SDS011;9854;50.968;4.168;2023-04-26T13:51:21;11.82;;;7.55;;
19436;SDS011;9854;50.968;4.168;2023-04-26T13:53:48;9.48;;;7.85;;
19436;SDS011;9854;50.968;4.168;2023-04-26T13:56:15;12.50;;;7.53;;
19436;SDS011;9854;50.968;4.168;2023-04-26T13:58:41;13.70;;;8.07;;
19436;SDS011;9854;50.968;4.168;2023-04-26T14:01:10;9.32;;;7.35;;
19436;SDS011;9854;50.968;4.168;2023-04-26T14:03:37;11.90;;;6.63;;
19436;SDS011;9854;50.968;4.168;2023-04-26T14:06:02;11.73;;;7.13;;
19436;SDS011;9854;50.968;4.168;2023-04-26T14:08:28;8.82;;;6.95;;
19436;SDS011;9854;50.968;4.168;2023-04-26T14:10:54;16.15;;;7.45;;
19436;SDS011;9854;50.968;4.168;2023-04-26T14:13:20;12.13;;;7.47;;
19436;SDS011;9854;50.968;4.168;2023-04-26T14:15:46;12.75;;;7.53;;
19436;SDS011;9854;50.968;4.168;2023-04-26T14:18:11;11.75;;;6.90;;
19436;SDS011;9854;50.968;4.168;2023-04-26T14:20:37;8.63;;;6.75;;
19436;SDS011;9854;50.968;4.168;2023-04-26T14:23:03;8.35;;;6.60;;
19436;SDS011;9854;50.968;4.168;2023-04-26T14:25:29;10.63;;;6.13;;
19436;SDS011;9854;50.968;4.168;2023-04-26T14:27:55;11.15;;;6.60;;
19436;SDS011;9854;50.968;4.168;2023-04-26T14:30:20;8.80;;;7.00;;
19436;SDS011;9854;50.968;4.168;2023-04-26T14:32:46;12.43;;;7.65;;
19436;SDS011;9854;50.968;4.168;2023-04-26T14:35:12;8.48;;;6.63;;
19436;SDS011;9854;50.968;4.168;2023-04-26T14:37:37;15.23;;;8.13;;
19436;SDS011;9854;50.968;4.168;2023-04-26T14:40:03;15.45;;;7.78;;
19436;SDS011;9854;50.968;4.168;2023-04-26T14:42:31;11.65;;;8.13;;
19436;SDS011;9854;50.968;4.168;2023-04-26T14:44:58;13.25;;;7.78;;
19436;SDS011;9854;50.968;4.168;2023-04-26T14:47:24;19.10;;;8.60;;
19436;SDS011;9854;50.968;4.168;2023-04-26T14:49:50;12.95;;;8.27;;
19436;SDS011;9854;50.968;4.168;2023-04-26T14:52:16;13.30;;;8.88;;
19436;SDS011;9854;50.968;4.168;2023-04-26T14:54:42;13.00;;;7.90;;
19436;SDS011;9854;50.968;4.168;2023-04-26T14:57:08;10.10;;;7.93;;
19436;SDS011;9854;50.968;4.168;2023-04-26T14:59:34;17.25;;;8.38;;
19436;SDS011;9854;50.968;4.168;2023-04-26T15:02:00;12.95;;;8.63;;
19436;SDS011;9854;50.968;4.168;2023-04-26T15:04:26;12.77;;;7.85;;
19436;SDS011;9854;50.968;4.168;2023-04-26T15:06:52;11.60;;;8.32;;